Time;durP1;ratioP1;P1;durP2;ratioP2;P2;SDS_P1;SDS_P2;PMS_P1;PMS_P2;Temp;Humidity;BMP_temperature;BMP_pressure;BME280_temperature;BME280_humidity;BME280_pressure;Samples;Min_cycle;Max_cycle;Signal;HPM_P1;HPM_P2
2022/12/29 00:02:10;;;;;;;1999.90;999.90;;;12.30;99.90;;;;;;5053701;28;20033;-76
2022/12/29 00:04:35;;;;;;;1999.90;999.90;;;12.30;99.90;;;;;;5051494;28;20080;-72
2022/12/29 00:07:04;;;;;;;1999.90;999.90;;;12.20;99.90;;;;;;5053724;28;20036;-73
2022/12/29 00:09:30;;;;;;;1999.90;999.90;;;12.30;99.90;;;;;;5053527;28;20056;-75
2022/12/29 00:11:57;;;;;;;1999.90;999.90;;;12.20;99.90;;;;;;5052910;28;20021;-72
2022/12/29 00:17:07;;;;;;;1999.90;999.90;;;12.30;99.90;;;;;;5053636;28;20526;-73
2022/12/29 00:36:32;;;;;;;1999.90;999.90;;;12.40;99.90;;;;;;5053188;28;20031;-75
2022/12/29 00:44:32;;;;;;;1999.90;999.90;;;12.20;99.90;;;;;;5053060;28;20024;-72
2022/12/29 00:47:02;;;;;;;1999.90;999.90;;;12.20;99.90;;;;;;5051515;28;20032;-72
2022/12/29 00:49:31;;;;;;;1999.90;999.90;;;12.20;99.90;;;;;;5052571;28;20110;-72
2022/12/29 00:51:57;;;;;;;1999.90;999.90;;;12.20;99.90;;;;;;5052809;28;20028;-72
2022/12/29 00:54:23;;;;;;;1999.90;999.90;;;12.20;99.90;;;;;;5052813;28;20032;-74
2022/12/29 00:56:50;;;;;;;1999.90;999.90;;;12.20;99.90;;;;;;5052288;28;20029;-75
2022/12/29 00:59:16;;;;;;;1999.90;999.90;;;12.20;99.90;;;;;;5052606;28;20079;-72
2022/12/29 01:01:42;;;;;;;1999.90;999.90;;;12.20;99.90;;;;;;5052575;28;20507;-74
2022/12/29 01:04:09;;;;;;;1999.90;999.90;;;12.30;99.90;;;;;;5052221;28;20079;-74
2022/12/29 01:06:36;;;;;;;1999.90;999.90;;;12.30;99.90;;;;;;5050782;28;20108;-72
2022/12/29 01:11:46;;;;;;;1999.90;999.90;;;12.30;99.90;;;;;;5051909;28;20561;-74
2022/12/29 01:14:12;;;;;;;1999.90;999.90;;;12.40;99.90;;;;;;5051949;28;20037;-73
2022/12/29 01:16:37;;;;;;;1999.90;999.90;;;12.50;99.90;;;;;;5051746;28;20029;-74
2022/12/29 01:19:04;;;;;;;1999.90;999.90;;;12.50;99.90;;;;;;5052404;28;20435;-72
2022/12/29 01:21:29;;;;;;;1999.90;999.90;;;12.50;99.90;;;;;;5051609;28;20029;-75
2022/12/29 01:23:55;;;;;;;1999.90;999.90;;;12.50;99.90;;;;;;5051372;28;20430;-75
2022/12/29 01:26:21;;;;;;;1999.90;999.90;;;12.40;99.90;;;;;;5052055;28;20027;-74
2022/12/29 01:28:47;;;;;;;1999.90;999.90;;;12.40;99.90;;;;;;5052105;28;20036;-74
2022/12/29 01:31:14;;;;;;;1999.90;999.90;;;12.40;99.90;;;;;;5051969;28;20021;-73
2022/12/29 01:33:40;;;;;;;1999.90;999.90;;;12.40;99.90;;;;;;5052036;28;20518;-74
2022/12/29 01:36:08;;;;;;;1999.90;999.90;;;12.30;99.90;;;;;;5051938;28;20056;-74
2022/12/29 01:38:35;;;;;;;1999.90;999.90;;;12.30;99.90;;;;;;5051864;28;20029;-75
2022/12/29 01:41:01;;;;;;;1999.90;999.90;;;12.30;99.90;;;;;;5051727;28;20032;-76
2022/12/29 01:43:42;;;;;;;1999.90;999.90;;;12.30;99.90;;;;;;5051841;28;20536;-75
2022/12/29 01:46:18;;;;;;;1999.90;999.90;;;12.40;99.90;;;;;;5051880;28;20032;-74
2022/12/29 01:48:47;;;;;;;1999.90;999.90;;;12.50;99.90;;;;;;5051878;28;20048;-76
2022/12/29 01:51:13;;;;;;;1999.90;999.90;;;12.50;99.90;;;;;;5052178;28;20025;-73
2022/12/29 01:53:38;;;;;;;1999.90;999.90;;;12.50;99.90;;;;;;5052048;28;20155;-73
2022/12/29 01:56:10;;;;;;;1999.90;999.90;;;12.50;99.90;;;;;;5051814;28;20032;-72
2022/12/29 01:58:41;;;;;;;1999.90;999.90;;;12.40;99.90;;;;;;5051843;28;20130;-72
2022/12/29 02:01:07;;;;;;;1999.90;999.90;;;12.40;99.90;;;;;;5051796;28;20392;-73
2022/12/29 02:03:34;;;;;;;1999.90;999.90;;;12.40;99.90;;;;;;5051955;28;20041;-72
2022/12/29 02:06:26;;;;;;;1999.90;999.90;;;12.30;99.90;;;;;;5051110;28;20486;-73
2022/12/29 02:08:54;;;;;;;1999.90;999.90;;;12.20;99.90;;;;;;5051568;28;20036;-74
2022/12/29 02:11:23;;;;;;;1999.90;999.90;;;12.10;99.90;;;;;;5051591;28;20119;-75
2022/12/29 02:13:48;;;;;;;1999.90;999.90;;;12.00;99.90;;;;;;5051365;28;20025;-72
2022/12/29 02:16:20;;;;;;;1999.90;999.90;;;11.90;99.90;;;;;;5051636;28;20039;-73
2022/12/29 02:19:04;;;;;;;1999.90;999.90;;;11.80;99.90;;;;;;5051623;28;20029;-73
2022/12/29 02:21:46;;;;;;;1999.90;999.90;;;11.80;99.90;;;;;;5050061;28;20171;-72
2022/12/29 02:24:35;;;;;;;1999.90;999.90;;;11.70;99.90;;;;;;5051171;28;20108;-74
2022/12/29 02:27:39;;;;;;;1999.90;999.90;;;11.70;99.90;;;;;;5049241;28;20500;-72
2022/12/29 02:30:14;;;;;;;1999.90;999.90;;;11.80;99.90;;;;;;5054864;28;20020;-72
2022/12/29 02:32:54;;;;;;;1999.90;999.90;;;11.80;99.90;;;;;;5055350;28;20079;-74
2022/12/29 02:35:44;;;;;;;1999.90;999.90;;;11.80;99.90;;;;;;5055486;28;20021;-74
2022/12/29 02:38:36;;;;;;;1999.90;999.90;;;11.80;99.90;;;;;;5054765;28;20025;-74
2022/12/29 02:41:19;;;;;;;1999.90;999.90;;;11.80;99.90;;;;;;5055031;28;20105;-74
2022/12/29 02:43:53;;;;;;;1999.90;999.90;;;11.90;99.90;;;;;;5055168;28;20530;-72
2022/12/29 02:46:47;;;;;;;1999.90;999.90;;;11.90;99.90;;;;;;5055171;28;20377;-73
2022/12/29 02:49:26;;;;;;;1999.90;999.90;;;11.90;99.90;;;;;;5054637;28;20040;-75
2022/12/29 02:52:00;;;;;;;1999.90;999.90;;;11.90;99.90;;;;;;5054700;28;20056;-74
2022/12/29 02:54:42;;;;;;;1999.90;999.90;;;11.90;99.90;;;;;;5054908;28;20043;-75
2022/12/29 02:57:22;;;;;;;1999.90;999.90;;;11.90;99.90;;;;;;5054951;28;20475;-73
2022/12/29 02:59:53;;;;;;;1999.90;999.90;;;11.90;99.90;;;;;;5054560;28;20629;-75
2022/12/29 03:02:37;;;;;;;1999.90;999.90;;;11.90;99.90;;;;;;5054849;28;20028;-73
2022/12/29 03:05:09;;;;;;;1999.90;999.90;;;11.80;99.90;;;;;;5054728;28;20045;-75
2022/12/29 03:07:47;;;;;;;1999.90;999.90;;;11.70;99.90;;;;;;5054220;28;20055;-75
2022/12/29 03:10:34;;;;;;;1999.90;999.90;;;11.70;99.90;;;;;;5054352;28;20021;-72
2022/12/29 03:16:09;;;;;;;1999.90;999.90;;;11.70;99.90;;;;;;5054614;28;20029;-74
2022/12/29 03:19:15;;;;;;;1999.90;999.90;;;11.80;99.90;;;;;;5054506;28;20108;-74
2022/12/29 03:24:43;;;;;;;1999.90;999.90;;;11.90;99.90;;;;;;5032041;28;20519;-75
2022/12/29 03:27:13;;;;;;;1999.90;999.90;;;12.00;99.90;;;;;;5031659;28;20030;-74
2022/12/29 03:29:54;;;;;;;1999.90;999.90;;;12.10;99.90;;;;;;5016194;28;20045;-73
2022/12/29 03:32:23;;;;;;;1999.90;999.90;;;12.10;99.90;;;;;;5031879;28;20539;-75
2022/12/29 03:34:50;;;;;;;1999.90;999.90;;;12.10;99.90;;;;;;5031385;28;20061;-72
2022/12/29 03:37:22;;;;;;;1999.90;999.90;;;12.10;99.90;;;;;;5032177;28;20029;-72
2022/12/29 03:39:47;;;;;;;1999.90;999.90;;;12.20;99.90;;;;;;5031801;28;20033;-74
2022/12/29 03:42:18;;;;;;;1999.90;999.90;;;12.20;99.90;;;;;;5014511;28;20053;-75
2022/12/29 03:44:45;;;;;;;1999.90;999.90;;;12.20;99.90;;;;;;5034495;28;20412;-73
2022/12/29 03:47:13;;;;;;;1999.90;999.90;;;12.30;99.90;;;;;;5051785;28;20104;-73
2022/12/29 03:49:39;;;;;;;1999.90;999.90;;;12.30;99.90;;;;;;5051600;28;20037;-74
2022/12/29 03:52:05;;;;;;;1999.90;999.90;;;12.20;99.90;;;;;;5051561;28;20036;-73
2022/12/29 03:54:31;;;;;;;1999.90;999.90;;;12.10;99.90;;;;;;5051807;28;20033;-75
2022/12/29 03:56:57;;;;;;;1999.90;999.90;;;12.10;99.90;;;;;;5052297;28;20381;-74
2022/12/29 03:59:22;;;;;;;1999.90;999.90;;;12.00;99.90;;;;;;5053906;28;20075;-73
2022/12/29 04:01:48;;;;;;;1999.90;999.90;;;12.00;99.90;;;;;;5053818;28;20013;-75
2022/12/29 04:04:14;;;;;;;1999.90;999.90;;;11.90;99.90;;;;;;5052010;28;20598;-74
2022/12/29 04:06:39;;;;;;;1999.90;999.90;;;11.80;99.90;;;;;;5053054;28;20085;-74
2022/12/29 04:09:06;;;;;;;1999.90;999.90;;;11.70;99.90;;;;;;5053677;28;20039;-74
2022/12/29 04:11:31;;;;;;;1999.90;999.90;;;11.70;99.90;;;;;;5053423;28;20017;-74
2022/12/29 04:13:57;;;;;;;1999.90;999.90;;;11.70;99.90;;;;;;5053305;28;20044;-73
2022/12/29 04:16:22;;;;;;;1999.90;999.90;;;11.70;99.90;;;;;;5052853;28;20560;-73
2022/12/29 04:18:48;;;;;;;1999.90;999.90;;;11.70;99.90;;;;;;5053172;28;20400;-72
2022/12/29 04:21:14;;;;;;;1999.90;999.90;;;11.70;99.90;;;;;;5053381;28;20041;-74
2022/12/29 04:23:39;;;;;;;1999.90;999.90;;;11.70;99.90;;;;;;5053067;28;20025;-72
2022/12/29 04:26:09;;;;;;;1999.90;999.90;;;11.60;99.90;;;;;;5052800;28;20021;-74
2022/12/29 04:28:36;;;;;;;1999.90;999.90;;;11.60;99.90;;;;;;5053449;28;20029;-73
2022/12/29 04:31:02;;;;;;;1999.90;999.90;;;11.60;99.90;;;;;;5052921;28;20396;-75
2022/12/29 04:33:28;;;;;;;1999.90;999.90;;;11.60;99.90;;;;;;5053044;28;20515;-73
2022/12/29 04:35:55;;;;;;;1999.90;999.90;;;11.60;99.90;;;;;;5053101;28;20021;-72
2022/12/29 04:38:22;;;;;;;1999.90;999.90;;;11.70;99.90;;;;;;5051683;28;20484;-71
2022/12/29 04:40:48;;;;;;;1999.90;999.90;;;11.70;99.90;;;;;;5053009;28;20025;-74
2022/12/29 04:43:14;;;;;;;1999.90;999.90;;;11.70;99.90;;;;;;5053155;28;20035;-75
2022/12/29 04:45:44;;;;;;;1999.90;999.90;;;11.80;99.90;;;;;;5052724;28;20029;-72
2022/12/29 04:48:10;;;;;;;1999.90;999.90;;;11.80;99.90;;;;;;5052507;28;20138;-75
2022/12/29 04:50:35;;;;;;;1999.90;999.90;;;11.80;99.90;;;;;;5052100;28;20048;-74
2022/12/29 04:53:01;;;;;;;1999.90;999.90;;;11.80;99.90;;;;;;5052988;28;20476;-75
2022/12/29 04:55:27;;;;;;;1999.90;999.90;;;11.70;99.90;;;;;;5052987;28;20112;-75
2022/12/29 04:57:53;;;;;;;1999.90;999.90;;;11.80;99.90;;;;;;5052750;28;20120;-75
2022/12/29 05:00:18;;;;;;;1999.90;999.90;;;11.80;99.90;;;;;;5052280;28;20083;-72
2022/12/29 05:02:44;;;;;;;1999.90;999.90;;;11.80;99.90;;;;;;5052461;28;20037;-75
2022/12/29 05:05:10;;;;;;;1999.90;999.90;;;11.80;99.90;;;;;;5052513;28;20055;-72
2022/12/29 05:07:36;;;;;;;1999.90;999.90;;;11.80;99.90;;;;;;5051979;28;20400;-72
2022/12/29 05:10:01;;;;;;;1999.90;999.90;;;11.90;99.90;;;;;;5052395;28;20013;-75
2022/12/29 05:12:31;;;;;;;1999.90;999.90;;;11.90;99.90;;;;;;5051671;28;20399;-75
2022/12/29 05:14:56;;;;;;;1999.90;999.90;;;11.80;99.90;;;;;;5052378;28;20028;-72
2022/12/29 05:17:22;;;;;;;1999.90;999.90;;;11.90;99.90;;;;;;5052577;28;20032;-71
2022/12/29 05:19:47;;;;;;;1999.90;999.90;;;11.90;99.90;;;;;;5052211;28;20515;-72
2022/12/29 05:22:14;;;;;;;1999.90;999.90;;;12.00;99.90;;;;;;5051773;28;20025;-72
2022/12/29 05:24:40;;;;;;;1999.90;999.90;;;11.90;99.90;;;;;;5052055;28;20017;-74
2022/12/29 05:27:05;;;;;;;1999.90;999.90;;;11.90;99.90;;;;;;5051812;28;20040;-72
2022/12/29 05:29:31;;;;;;;1999.90;999.90;;;11.90;99.90;;;;;;5052192;28;20025;-75
2022/12/29 05:31:56;;;;;;;1999.90;999.90;;;11.90;99.90;;;;;;5048679;28;20404;-75
2022/12/29 05:34:22;;;;;;;1999.90;999.90;;;11.80;99.90;;;;;;5051820;28;20052;-74
2022/12/29 05:36:48;;;;;;;1999.90;999.90;;;11.70;99.90;;;;;;5052035;28;20476;-74
2022/12/29 05:39:13;;;;;;;1999.90;999.90;;;11.70;99.90;;;;;;5051930;28;20025;-74
2022/12/29 05:41:39;;;;;;;1999.90;999.90;;;11.70;99.90;;;;;;5051595;28;20024;-75
2022/12/29 05:44:04;;;;;;;1999.90;999.90;;;11.70;99.90;;;;;;5051033;28;20449;-75
2022/12/29 05:46:30;;;;;;;1999.90;999.90;;;11.70;99.90;;;;;;5051756;28;20060;-75
2022/12/29 05:48:56;;;;;;;1999.90;999.90;;;11.70;99.90;;;;;;5051840;28;20551;-74
2022/12/29 05:51:22;;;;;;;1999.90;999.90;;;11.60;99.90;;;;;;5051917;28;20024;-75
2022/12/29 05:53:47;;;;;;;1999.90;999.90;;;11.60;99.90;;;;;;5051780;28;20032;-75
2022/12/29 05:56:13;;;;;;;1999.90;999.90;;;11.50;99.90;;;;;;5051294;28;20108;-74
2022/12/29 05:58:38;;;;;;;1999.90;999.90;;;11.50;99.90;;;;;;5051664;28;20060;-75
2022/12/29 06:01:04;;;;;;;1999.90;999.90;;;11.50;99.90;;;;;;5051745;28;20438;-73
2022/12/29 06:03:30;;;;;;;1999.90;999.90;;;11.50;99.90;;;;;;5055959;28;20246;-75
2022/12/29 06:05:55;;;;;;;1999.90;999.90;;;11.60;99.90;;;;;;5055914;28;20041;-75
2022/12/29 06:08:21;;;;;;;1999.90;999.90;;;11.60;99.90;;;;;;5054994;28;20109;-75
2022/12/29 06:10:47;;;;;;;1999.90;999.90;;;11.60;99.90;;;;;;5056117;28;20028;-73
2022/12/29 06:13:12;;;;;;;1999.90;999.90;;;11.70;99.90;;;;;;5055331;28;20047;-75
2022/12/29 06:15:38;;;;;;;1999.90;999.90;;;11.70;99.90;;;;;;5055786;28;20075;-74
2022/12/29 06:18:04;;;;;;;1999.90;999.90;;;11.70;99.90;;;;;;5055580;28;20074;-75
2022/12/29 06:20:29;;;;;;;1999.90;999.90;;;11.80;99.90;;;;;;5055396;28;20625;-75
2022/12/29 06:22:55;;;;;;;1999.90;999.90;;;11.90;99.90;;;;;;5055191;28;20028;-75
2022/12/29 06:25:20;;;;;;;1999.90;999.90;;;11.80;99.90;;;;;;5055066;28;20031;-74
2022/12/29 06:27:46;;;;;;;1999.90;999.90;;;11.80;99.90;;;;;;5055073;28;20486;-72
2022/12/29 06:30:12;;;;;;;1999.90;999.90;;;11.80;99.90;;;;;;5054897;28;20035;-74
2022/12/29 06:32:38;;;;;;;1999.90;999.90;;;11.80;99.90;;;;;;5055463;28;20427;-72
2022/12/29 06:35:06;;;;;;;1999.90;999.90;;;11.80;99.90;;;;;;5055002;28;20131;-72
2022/12/29 06:37:32;;;;;;;1999.90;999.90;;;11.80;99.90;;;;;;5035402;28;20530;-73
2022/12/29 06:39:58;;;;;;;1999.90;999.90;;;11.70;99.90;;;;;;5035272;28;20033;-75
2022/12/29 06:42:23;;;;;;;1999.90;999.90;;;11.70;99.90;;;;;;5034727;28;20056;-72
2022/12/29 06:44:49;;;;;;;1999.90;999.90;;;11.70;99.90;;;;;;5038263;28;20060;-72
2022/12/29 06:47:15;;;;;;;1999.90;999.90;;;11.70;99.90;;;;;;5055054;28;20021;-75
2022/12/29 06:49:41;;;;;;;1999.90;999.90;;;11.80;99.90;;;;;;5053569;28;20096;-72
2022/12/29 06:52:07;;;;;;;1999.90;999.90;;;11.70;99.90;;;;;;5054999;28;20071;-76
2022/12/29 06:54:32;;;;;;;1999.90;999.90;;;11.60;99.90;;;;;;5054865;28;20028;-72
2022/12/29 06:56:59;;;;;;;1999.90;999.90;;;11.60;99.90;;;;;;5054658;28;20037;-72
2022/12/29 06:59:25;;;;;;;1999.90;999.90;;;11.60;99.90;;;;;;5053370;28;20423;-72
2022/12/29 07:01:51;;;;;;;1999.90;999.90;;;11.60;99.90;;;;;;5054688;28;20028;-73
2022/12/29 07:04:17;;;;;;;1999.90;999.90;;;11.60;99.90;;;;;;5052912;28;20055;-75
2022/12/29 07:06:43;;;;;;;1999.90;999.90;;;11.60;99.90;;;;;;5054809;28;20090;-75
2022/12/29 07:09:09;;;;;;;1999.90;999.90;;;11.50;99.90;;;;;;5053713;28;20029;-72
2022/12/29 07:11:35;;;;;;;1999.90;999.90;;;11.50;99.90;;;;;;5054395;28;20480;-72
2022/12/29 07:14:01;;;;;;;1999.90;999.90;;;11.50;99.90;;;;;;5053809;28;20037;-75
2022/12/29 07:16:29;;;;;;;1999.90;999.90;;;11.60;99.90;;;;;;5054002;28;20037;-72
2022/12/29 07:18:55;;;;;;;1999.90;999.90;;;11.60;99.90;;;;;;5054722;28;20025;-75
2022/12/29 07:21:20;;;;;;;1999.90;999.90;;;11.60;99.90;;;;;;5054257;28;20013;-74
2022/12/29 07:23:46;;;;;;;1999.90;999.90;;;11.60;99.90;;;;;;5053911;28;20036;-72
2022/12/29 07:26:14;;;;;;;1999.90;999.90;;;11.70;99.90;;;;;;5053844;28;20028;-75
2022/12/29 07:28:41;;;;;;;1999.90;999.90;;;11.60;99.90;;;;;;5054082;28;20036;-73
2022/12/29 07:31:17;;;;;;;1999.90;999.90;;;11.60;99.90;;;;;;5052860;28;20530;-72
2022/12/29 07:33:44;;;;;;;1999.90;999.90;;;11.60;99.90;;;;;;5053198;28;20024;-75
2022/12/29 07:36:11;;;;;;;1999.90;999.90;;;11.60;99.90;;;;;;5053985;28;20021;-72
2022/12/29 07:38:36;;;;;;;1999.90;999.90;;;11.60;99.90;;;;;;5054143;28;20040;-74
2022/12/29 07:41:02;;;;;;;1999.90;999.90;;;11.50;99.90;;;;;;5053777;28;20392;-72
2022/12/29 07:43:28;;;;;;;1999.90;999.90;;;11.50;99.90;;;;;;5054009;28;20510;-75
2022/12/29 07:45:54;;;;;;;1999.90;999.90;;;11.50;99.90;;;;;;5054066;28;20025;-71
2022/12/29 07:48:19;;;;;;;1999.90;999.90;;;11.50;99.90;;;;;;5053763;28;20031;-72
2022/12/29 07:50:45;;;;;;;1999.90;999.90;;;11.50;99.90;;;;;;5039531;28;20036;-74
2022/12/29 07:53:11;;;;;;;1999.90;999.90;;;11.50;99.90;;;;;;5051854;28;20051;-72
2022/12/29 07:55:36;;;;;;;1999.90;999.90;;;11.50;99.90;;;;;;5053061;28;20021;-75
2022/12/29 07:58:02;;;;;;;1999.90;999.90;;;11.50;99.90;;;;;;5053269;28;20085;-75
2022/12/29 08:00:28;;;;;;;1999.90;999.90;;;11.50;99.90;;;;;;5053079;28;20025;-75
2022/12/29 08:02:53;;;;;;;1999.90;999.90;;;11.50;99.90;;;;;;5053489;28;20024;-72
2022/12/29 08:05:20;;;;;;;1999.90;999.90;;;11.60;99.90;;;;;;5053592;28;20053;-75
2022/12/29 08:07:46;;;;;;;1999.90;999.90;;;11.70;99.90;;;;;;5053397;28;20036;-75
2022/12/29 08:10:13;;;;;;;1999.90;999.90;;;11.70;99.90;;;;;;5052467;28;20388;-75
2022/12/29 08:12:40;;;;;;;1999.90;999.90;;;11.80;99.90;;;;;;5052704;28;20104;-72
2022/12/29 08:15:07;;;;;;;1999.90;999.90;;;11.80;99.90;;;;;;5053571;28;20146;-75
2022/12/29 08:17:32;;;;;;;1999.90;999.90;;;11.90;99.90;;;;;;5053289;28;20499;-72
2022/12/29 08:19:58;;;;;;;1999.90;999.90;;;12.00;99.90;;;;;;5050973;28;20025;-72
2022/12/29 08:22:24;;;;;;;1999.90;999.90;;;12.10;99.90;;;;;;5052097;28;20027;-75
2022/12/29 08:24:50;;;;;;;1999.90;999.90;;;12.20;99.90;;;;;;5051300;28;20029;-72
2022/12/29 08:27:15;;;;;;;1999.90;999.90;;;12.20;99.90;;;;;;5052911;28;20107;-72
2022/12/29 08:29:41;;;;;;;1999.90;999.90;;;12.10;99.90;;;;;;5052728;28;20071;-76
2022/12/29 08:32:07;;;;;;;1999.90;999.90;;;12.00;99.90;;;;;;5052316;28;20102;-72
2022/12/29 08:34:33;;;;;;;1999.90;999.90;;;11.80;99.90;;;;;;5052964;28;20059;-72
2022/12/29 08:36:59;;;;;;;1999.90;999.90;;;11.70;99.90;;;;;;5051491;28;20056;-72
2022/12/29 08:39:24;;;;;;;1999.90;999.90;;;11.70;99.90;;;;;;5052822;28;20387;-72
2022/12/29 08:41:50;;;;;;;1999.90;999.90;;;11.60;99.90;;;;;;5051980;28;20033;-72
2022/12/29 08:44:16;;;;;;;1999.90;999.90;;;11.60;99.90;;;;;;5052671;28;20503;-72
2022/12/29 08:46:41;;;;;;;1999.90;999.90;;;11.60;99.90;;;;;;5052600;28;20090;-72
2022/12/29 08:49:07;;;;;;;1999.90;999.90;;;11.50;99.90;;;;;;5052583;28;20502;-76
2022/12/29 08:51:32;;;;;;;1999.90;999.90;;;11.50;99.90;;;;;;5052333;28;20104;-76
2022/12/29 08:53:59;;;;;;;1999.90;999.90;;;11.60;99.90;;;;;;5052417;28;20488;-77
2022/12/29 08:56:25;;;;;;;1999.90;999.90;;;11.50;99.90;;;;;;5052406;28;20025;-72
2022/12/29 08:58:51;;;;;;;1999.90;999.90;;;11.40;99.90;;;;;;5052272;28;20036;-72
2022/12/29 09:01:17;;;;;;;1999.90;999.90;;;11.40;99.90;;;;;;5052780;28;20032;-72
2022/12/29 09:03:43;;;;;;;1999.90;999.90;;;11.30;99.90;;;;;;5052064;28;20048;-76
2022/12/29 09:06:09;;;;;;;1999.90;999.90;;;11.30;99.90;;;;;;5052157;28;20038;-72
2022/12/29 09:08:35;;;;;;;1999.90;999.90;;;11.20;99.90;;;;;;5052044;28;20029;-72
2022/12/29 09:11:20;;;;;;;1999.90;999.90;;;11.20;99.90;;;;;;5051824;28;20040;-72
2022/12/29 09:13:46;;;;;;;1999.90;999.90;;;11.20;99.90;;;;;;5051431;28;20016;-76
2022/12/29 09:16:12;;;;;;;1999.90;999.90;;;11.20;99.90;;;;;;5052178;28;20427;-76
2022/12/29 09:18:38;;;;;;;1999.90;999.90;;;11.20;99.90;;;;;;5050907;28;20377;-72
2022/12/29 09:21:06;;;;;;;1999.90;999.90;;;11.20;99.90;;;;;;5051525;28;20021;-72
2022/12/29 09:23:33;;;;;;;1999.90;999.90;;;11.20;99.90;;;;;;5051332;28;20025;-72
2022/12/29 09:25:59;;;;;;;1999.90;999.90;;;11.10;99.90;;;;;;5051068;28;20078;-72
2022/12/29 09:28:25;;;;;;;1999.90;999.90;;;11.10;99.90;;;;;;5038615;28;20029;-74
2022/12/29 09:30:51;;;;;;;1999.90;999.90;;;11.10;99.90;;;;;;5051478;28;20044;-72
2022/12/29 09:33:17;;;;;;;1999.90;999.90;;;11.00;99.90;;;;;;5051628;28;20064;-72
2022/12/29 09:35:44;;;;;;;1999.90;999.90;;;10.90;99.90;;;;;;5051982;28;20024;-72
2022/12/29 09:38:10;;;;;;;1999.90;999.90;;;10.90;99.90;;;;;;5051680;28;20029;-72
2022/12/29 09:40:37;;;;;;;1999.90;999.90;;;10.90;99.90;;;;;;5051598;28;20021;-74
2022/12/29 09:43:24;;;;;;;1999.90;999.90;;;10.80;99.90;;;;;;5050357;28;20074;-74
2022/12/29 09:46:06;;;;;;;1999.90;999.90;;;10.90;99.90;;;;;;5051066;28;20049;-72
2022/12/29 09:48:40;;;;;;;1999.90;999.90;;;10.90;99.90;;;;;;5051916;28;20029;-75
2022/12/29 09:51:12;;;;;;;1999.90;999.90;;;10.90;99.90;;;;;;5051280;28;20029;-75
2022/12/29 09:53:44;;;;;;;1999.90;999.90;;;10.90;99.90;;;;;;5051203;28;20109;-74
2022/12/29 09:56:20;;;;;;;1999.90;999.90;;;10.90;99.90;;;;;;5051346;28;20040;-75
2022/12/29 09:58:56;;;;;;;1999.90;999.90;;;10.90;99.90;;;;;;5051391;28;20436;-71
2022/12/29 10:01:38;;;;;;;1999.90;999.90;;;10.90;99.90;;;;;;5051843;28;20488;-72
2022/12/29 10:04:05;;;;;;;1999.90;999.90;;;10.90;99.90;;;;;;5051358;28;20390;-71
2022/12/29 10:06:49;;;;;;;1999.90;999.90;;;11.00;99.90;;;;;;5050368;28;20025;-75
2022/12/29 10:09:39;;;;;;;1999.90;999.90;;;11.00;99.90;;;;;;5051175;28;20052;-75
2022/12/29 10:12:45;;;;;;;1999.90;999.90;;;11.00;99.90;;;;;;5050913;28;20020;-75
2022/12/29 10:15:22;;;;;;;1999.90;999.90;;;11.10;99.90;;;;;;5049885;28;20045;-75
2022/12/29 10:18:23;;;;;;;1999.90;999.90;;;11.10;99.90;;;;;;5051023;28;20040;-72
2022/12/29 10:21:22;;;;;;;1999.90;999.90;;;11.20;99.90;;;;;;5046547;28;20586;-72
2022/12/29 10:23:52;;;;;;;1999.90;999.90;;;11.20;99.90;;;;;;5049252;28;20037;-75
2022/12/29 10:26:30;;;;;;;1999.90;999.90;;;11.20;99.90;;;;;;5050494;28;20104;-72
2022/12/29 10:28:58;;;;;;;1999.90;999.90;;;11.20;99.90;;;;;;5050792;28;20071;-72
2022/12/29 10:31:39;;;;;;;1999.90;999.90;;;11.30;99.90;;;;;;5051223;28;20040;-74
2022/12/29 10:34:18;;;;;;;1999.90;999.90;;;11.20;99.90;;;;;;5050488;28;20087;-75
2022/12/29 10:36:48;;;;;;;1999.90;999.90;;;11.30;99.90;;;;;;5050295;28;20029;-72
2022/12/29 10:39:30;;;;;;;1999.90;999.90;;;11.30;99.90;;;;;;5050835;28;20072;-75
2022/12/29 10:42:11;;;;;;;1999.90;999.90;;;11.30;99.90;;;;;;5050034;28;20032;-72
2022/12/29 10:44:36;;;;;;;1999.90;999.90;;;11.40;99.90;;;;;;5050612;28;20484;-72
2022/12/29 10:47:13;;;;;;;1999.90;999.90;;;11.50;99.90;;;;;;5050728;28;20036;-76
2022/12/29 10:49:42;;;;;;;1999.90;999.90;;;11.60;99.90;;;;;;5054498;28;20035;-75
2022/12/29 10:52:09;;;;;;;1999.90;999.90;;;11.50;99.90;;;;;;5054857;28;20092;-72
2022/12/29 10:54:53;;;;;;;1999.90;999.90;;;11.50;99.90;;;;;;5054842;28;20098;-73
2022/12/29 10:57:33;;;;;;;1999.90;999.90;;;11.40;99.90;;;;;;5053514;28;20021;-72
2022/12/29 10:59:59;;;;;;;1999.90;999.90;;;11.30;99.90;;;;;;5054636;28;20029;-72
2022/12/29 11:02:44;;;;;;;1999.90;999.90;;;11.20;99.90;;;;;;5053993;28;20021;-75
2022/12/29 11:05:40;;;;;;;1999.90;999.90;;;11.10;99.90;;;;;;5054502;28;20416;-75
2022/12/29 11:08:18;;;;;;;1999.90;999.90;;;11.00;99.90;;;;;;5054241;28;20120;-72
2022/12/29 11:10:46;;;;;;;1999.90;999.90;;;10.90;99.90;;;;;;5053744;28;20060;-75
2022/12/29 11:13:29;;;;;;;1999.90;999.90;;;10.80;99.90;;;;;;5054606;28;20032;-75
2022/12/29 11:15:55;;;;;;;1999.90;999.90;;;11.00;99.90;;;;;;5054469;28;20443;-72
2022/12/29 11:18:24;;;;;;;1999.90;999.90;;;11.10;99.90;;;;;;5054520;28;20033;-72
2022/12/29 11:20:54;;;;;;;1999.90;999.90;;;11.10;99.90;;;;;;5053735;28;20025;-72
2022/12/29 11:23:34;;;;;;;1999.90;999.90;;;11.10;99.90;;;;;;5054248;28;20021;-72
2022/12/29 11:26:22;;;;;;;1999.90;999.90;;;11.10;99.90;;;;;;5053874;28;20404;-75
2022/12/29 11:29:22;;;;;;;1999.90;999.90;;;11.10;99.90;;;;;;5053814;28;20051;-73
2022/12/29 11:31:50;;;;;;;1999.90;999.90;;;11.00;99.90;;;;;;5042318;28;20555;-75
2022/12/29 11:34:20;;;;;;;1999.90;999.90;;;11.00;99.90;;;;;;5052888;28;20025;-72
2022/12/29 11:36:48;;;;;;;1999.90;999.90;;;11.00;99.90;;;;;;5054383;28;20036;-74
2022/12/29 11:39:45;;;;;;;1999.90;999.90;;;11.10;99.90;;;;;;5054331;28;20100;-75
2022/12/29 11:42:19;;;;;;;1999.90;999.90;;;11.20;99.90;;;;;;5045646;28;20426;-74
2022/12/29 11:44:48;;;;;;;1999.90;999.90;;;11.40;99.90;;;;;;5053709;28;20021;-74
2022/12/29 11:47:29;;;;;;;1999.90;999.90;;;11.60;99.90;;;;;;5054056;28;20025;-73
2022/12/29 11:49:59;;;;;;;1999.90;999.90;;;11.70;99.90;;;;;;5054011;28;20029;-73
2022/12/29 11:52:28;;;;;;;1999.90;999.90;;;11.70;99.90;;;;;;5053832;28;20029;-75
2022/12/29 11:54:56;;;;;;;1999.90;999.90;;;11.80;99.90;;;;;;5053748;28;20021;-73
2022/12/29 11:57:23;;;;;;;1999.90;999.90;;;11.80;99.90;;;;;;5053541;28;20028;-73
2022/12/29 11:59:55;;;;;;;1999.90;999.90;;;11.80;99.90;;;;;;5053487;28;20108;-73
2022/12/29 12:02:36;;;;;;;1999.90;999.90;;;11.80;99.90;;;;;;5053683;28;20057;-73
2022/12/29 12:05:19;;;;;;;1999.90;999.90;;;11.80;99.90;;;;;;5053436;28;20049;-73
2022/12/29 12:07:49;;;;;;;1999.90;999.90;;;11.70;99.90;;;;;;5052100;28;20044;-74
2022/12/29 12:10:42;;;;;;;1999.90;999.90;;;11.70;99.90;;;;;;5052098;28;20021;-73
2022/12/29 12:13:07;;;;;;;1999.90;999.90;;;11.70;99.90;;;;;;5052913;28;20033;-73
2022/12/29 12:15:47;;;;;;;1999.90;999.90;;;11.70;99.90;;;;;;5050152;28;20095;-73
2022/12/29 12:18:18;;;;;;;1999.90;999.90;;;11.70;99.90;;;;;;5052884;28;20091;-74
2022/12/29 12:21:37;;;;;;;1999.90;999.90;;;11.80;99.90;;;;;;5052413;28;20040;-72
2022/12/29 12:24:15;;;;;;;1999.90;999.90;;;11.80;99.90;;;;;;5030263;28;20064;-72
2022/12/29 12:27:21;;;;;;;1999.90;999.90;;;11.90;99.90;;;;;;5052451;28;20039;-72
2022/12/29 12:30:00;;;;;;;1999.90;999.90;;;11.90;99.90;;;;;;5030012;28;20112;-74
2022/12/29 12:32:42;;;;;;;1999.90;999.90;;;11.90;99.90;;;;;;5030522;28;20124;-75
2022/12/29 12:35:49;;;;;;;1999.90;999.90;;;11.90;99.90;;;;;;5030108;28;20049;-73
2022/12/29 12:38:52;;;;;;;1999.90;999.90;;;11.90;99.90;;;;;;5018518;28;20072;-72
2022/12/29 12:41:27;;;;;;;1999.90;999.90;;;11.90;99.90;;;;;;5030178;28;20044;-72
2022/12/29 12:44:04;;;;;;;1999.90;999.90;;;11.80;99.90;;;;;;5030310;28;20021;-75
2022/12/29 12:47:09;;;;;;;1999.90;999.90;;;11.80;99.90;;;;;;5030073;28;20453;-75
2022/12/29 12:49:59;;;;;;;1999.90;999.90;;;11.80;99.90;;;;;;5029521;28;20044;-75
2022/12/29 12:53:00;;;;;;;1999.90;999.90;;;11.80;99.90;;;;;;5029538;28;20068;-72